Time;durP1;ratioP1;P1;durP2;ratioP2;P2;SDS_P1;SDS_P2;PMS_P1;PMS_P2;Temp;Humidity;BMP_temperature;BMP_pressure;BME280_temperature;BME280_humidity;BME280_pressure;Samples;Min_cycle;Max_cycle;Signal;HPM_P1;HPM_P2
2024/03/01 00:01:31;;;;;;;14.60;10.30;;;;;;;3.69;100.00;97485.91;15293236;19;20018;-56
2024/03/01 00:06:56;;;;;;;14.85;10.90;;;;;;;3.69;100.00;97480.59;15289937;19;20021;-55
2024/03/01 00:12:21;;;;;;;13.05;10.02;;;;;;;3.72;100.00;97475.94;15290553;19;20025;-54
2024/03/01 00:17:48;;;;;;;15.50;10.70;;;;;;;3.73;100.00;97473.16;15295173;19;20380;-56
2024/03/01 00:23:13;;;;;;;15.40;10.88;;;;;;;3.75;100.00;97459.69;15289107;19;20021;-55
2024/03/01 00:28:38;;;;;;;16.88;12.02;;;;;;;3.75;100.00;97460.53;15287761;19;20042;-57
2024/03/01 00:34:05;;;;;;;15.32;10.85;;;;;;;3.76;100.00;97456.91;15286001;19;20070;-54
2024/03/01 00:39:30;;;;;;;15.48;10.82;;;;;;;3.77;100.00;97452.41;15291838;19;20029;-57
2024/03/01 00:44:54;;;;;;;15.90;11.35;;;;;;;3.77;100.00;97463.06;15286683;19;20090;-57
2024/03/01 00:50:25;;;;;;;14.13;10.43;;;;;;;3.76;100.00;97461.38;15290892;19;20022;-55
2024/03/01 00:55:52;;;;;;;11.73;9.10;;;;;;;3.70;100.00;97452.94;15285236;19;20045;-54
2024/03/01 01:01:16;;;;;;;16.00;10.98;;;;;;;3.63;100.00;97451.00;15296289;19;20403;-52
2024/03/01 01:06:44;;;;;;;18.92;11.15;;;;;;;3.63;100.00;97435.88;15283130;19;20022;-56
2024/03/01 01:12:09;;;;;;;14.50;10.90;;;;;;;3.64;100.00;97431.41;15286313;19;20477;-53
2024/03/01 01:17:35;;;;;;;16.85;11.10;;;;;;;3.57;100.00;97420.47;15291664;19;20074;-53
2024/03/01 01:23:03;;;;;;;20.20;11.38;;;;;;;3.55;100.00;97422.44;15291261;19;20098;-52
2024/03/01 01:28:32;;;;;;;21.69;11.86;;;;;;;3.57;100.00;97414.28;15186043;19;5002587;-53
2024/03/01 01:33:57;;;;;;;17.55;10.88;;;;;;;3.55;100.00;97414.44;15284048;19;20015;-55
2024/03/01 01:39:24;;;;;;;15.30;10.10;;;;;;;3.44;100.00;97412.75;15285089;19;20078;-53
2024/03/01 01:44:49;;;;;;;13.68;10.48;;;;;;;3.31;100.00;97415.72;15035890;19;5002232;-53
2024/03/01 01:50:15;;;;;;;18.55;12.38;;;;;;;3.26;100.00;97415.28;15299831;19;20032;-56
2024/03/01 01:55:44;;;;;;;20.35;13.27;;;;;;;3.34;100.00;97396.81;15300213;19;20026;-57
2024/03/01 02:01:18;;;;;;;22.20;13.38;;;;;;;3.39;100.00;97404.38;15307177;19;20010;-57
2024/03/01 02:06:44;;;;;;;18.42;13.60;;;;;;;3.39;100.00;97397.19;15301901;19;20386;-56
2024/03/01 02:12:13;;;;;;;16.48;11.60;;;;;;;3.34;100.00;97386.16;15300657;19;20040;-53
2024/03/01 02:17:39;;;;;;;15.20;10.48;;;;;;;3.13;100.00;97372.97;15303098;19;20023;-53
2024/03/01 02:23:10;;;;;;;14.25;10.40;;;;;;;3.00;100.00;97373.25;15297845;19;20066;-55
2024/03/01 02:28:45;;;;;;;13.70;9.95;;;;;;;2.88;100.00;97372.56;15296372;19;20090;-55
2024/03/01 02:34:10;;;;;;;16.98;10.77;;;;;;;2.75;100.00;97367.50;15295750;19;20086;-55
2024/03/01 02:39:34;;;;;;;13.00;10.38;;;;;;;2.64;100.00;97354.34;15298213;19;20025;-56
2024/03/01 02:45:02;;;;;;;14.75;10.10;;;;;;;2.52;100.00;97350.94;15299052;19;20440;-57
2024/03/01 02:50:26;;;;;;;16.83;11.73;;;;;;;2.43;100.00;97341.97;15303461;19;20011;-55
2024/03/01 02:55:52;;;;;;;17.00;11.77;;;;;;;2.42;100.00;97337.63;15299469;19;20018;-58
2024/03/01 03:01:26;;;;;;;17.77;11.50;;;;;;;2.42;100.00;97342.09;15299845;19;20108;-54
2024/03/01 03:06:51;;;;;;;20.33;12.70;;;;;;;2.41;100.00;97345.75;15298587;19;20025;-56
2024/03/01 03:12:21;;;;;;;20.63;13.32;;;;;;;2.38;100.00;97341.56;15293771;19;20035;-53
2024/03/01 03:17:48;;;;;;;20.90;13.80;;;;;;;2.34;100.00;97324.19;15293768;19;20054;-54
2024/03/01 03:23:13;;;;;;;22.05;14.77;;;;;;;2.33;100.00;97327.81;15034942;19;5001760;-56
2024/03/01 03:28:37;;;;;;;23.67;14.50;;;;;;;2.23;100.00;97335.78;15289617;19;20043;-55
2024/03/01 03:34:05;;;;;;;26.05;15.80;;;;;;;2.25;100.00;97330.31;15294231;19;20479;-57
2024/03/01 03:39:30;;;;;;;35.78;20.60;;;;;;;2.34;100.00;97326.84;15296913;19;20018;-54
2024/03/01 03:44:55;;;;;;;36.17;20.77;;;;;;;2.43;100.00;97325.19;15291605;19;20097;-55
2024/03/01 03:50:24;;;;;;;40.28;23.05;;;;;;;2.53;100.00;97327.88;15295288;19;20479;-56
2024/03/01 03:55:49;;;;;;;40.63;23.33;;;;;;;2.62;100.00;97325.19;15290171;19;20404;-53
2024/03/01 04:01:20;;;;;;;35.50;18.80;;;;;;;2.66;100.00;97323.09;15296695;19;20523;-55
2024/03/01 04:06:47;;;;;;;30.88;18.90;;;;;;;2.56;100.00;97335.56;15298224;19;20018;-57
2024/03/01 04:12:21;;;;;;;34.45;19.80;;;;;;;2.44;100.00;97343.66;15297114;19;20511;-57
2024/03/01 04:17:46;;;;;;;47.15;22.45;;;;;;;2.43;100.00;97347.28;15292216;19;20027;-57
2024/03/01 04:23:14;;;;;;;47.13;23.45;;;;;;;2.44;100.00;97356.09;15290153;19;20082;-57
2024/03/01 04:28:41;;;;;;;41.70;22.08;;;;;;;2.39;100.00;97372.47;15288809;19;20022;-56
2024/03/01 04:34:06;;;;;;;38.15;20.48;;;;;;;2.35;100.00;97373.72;15290874;19;20033;-53
2024/03/01 04:39:33;;;;;;;46.28;22.10;;;;;;;2.28;100.00;97376.06;15284138;19;20082;-56
2024/03/01 04:44:58;;;;;;;38.60;20.77;;;;;;;2.22;100.00;97373.09;15288076;19;20025;-55
2024/03/01 04:50:23;;;;;;;39.80;21.27;;;;;;;2.18;100.00;97377.00;15285110;19;20486;-54
2024/03/01 04:55:51;;;;;;;40.25;20.65;;;;;;;2.12;100.00;97383.69;15295974;19;20015;-60
2024/03/01 05:01:22;;;;;;;45.35;21.77;;;;;;;2.04;100.00;97402.09;15280883;19;20030;-78
2024/03/01 05:06:47;;;;;;;43.70;21.02;;;;;;;1.93;100.00;97406.53;15293422;19;20101;-78
2024/03/01 05:12:16;;;;;;;43.58;20.80;;;;;;;1.78;100.00;97406.03;15287692;19;20022;-78
2024/03/01 05:17:43;;;;;;;48.22;23.60;;;;;;;1.70;100.00;97413.84;15296837;19;20070;-78
2024/03/01 05:23:08;;;;;;;52.83;26.08;;;;;;;1.72;100.00;97417.16;15285052;19;20023;-76
2024/03/01 05:28:35;;;;;;;60.33;28.00;;;;;;;1.77;100.00;97430.91;15292624;19;20017;-76
2024/03/01 05:34:03;;;;;;;58.60;27.98;;;;;;;1.79;100.00;97434.28;15300471;19;20018;-76
2024/03/01 05:39:28;;;;;;;62.20;28.20;;;;;;;1.83;100.00;97438.34;15352845;19;20020;-75
2024/03/01 05:44:56;;;;;;;62.53;27.92;;;;;;;1.85;100.00;97436.41;15282696;19;20018;-75
2024/03/01 05:50:20;;;;;;;70.95;28.63;;;;;;;1.87;100.00;97438.09;15287336;19;20015;-77
2024/03/01 05:55:45;;;;;;;76.80;31.83;;;;;;;1.90;100.00;97446.63;15282164;19;20059;-77
2024/03/01 06:01:20;;;;;;;80.25;32.55;;;;;;;1.94;100.00;97452.56;15288508;19;20528;-76
2024/03/01 06:06:45;;;;;;;86.47;31.88;;;;;;;1.97;100.00;97458.44;15281389;19;20021;-77
2024/03/01 06:12:10;;;;;;;76.60;33.30;;;;;;;1.97;100.00;97454.94;15281022;19;20021;-76
2024/03/01 06:17:37;;;;;;;76.45;32.47;;;;;;;2.00;100.00;97463.47;15281818;19;20017;-76
2024/03/01 06:23:02;;;;;;;76.47;33.60;;;;;;;2.04;100.00;97463.22;15277166;19;20499;-76
2024/03/01 06:28:27;;;;;;;73.93;31.50;;;;;;;2.06;100.00;97456.78;15280237;19;20090;-77
2024/03/01 06:33:54;;;;;;;74.43;31.98;;;;;;;2.10;100.00;97468.84;15294466;19;20410;-76
2024/03/01 06:39:18;;;;;;;72.38;31.73;;;;;;;2.12;100.00;97472.22;15301719;19;20015;-76
2024/03/01 06:44:43;;;;;;;79.20;34.03;;;;;;;2.22;100.00;97476.75;15238476;19;20028;-76
2024/03/01 06:50:11;;;;;;;73.45;32.65;;;;;;;2.34;100.00;97485.47;15295470;19;20436;-76
2024/03/01 06:55:37;;;;;;;74.53;32.90;;;;;;;2.40;100.00;97480.47;15295142;19;20015;-75
2024/03/01 07:01:08;;;;;;;65.38;31.15;;;;;;;2.53;100.00;97492.72;15293324;19;20042;-76
2024/03/01 07:06:35;;;;;;;59.50;28.27;;;;;;;2.64;100.00;97497.94;15293530;19;20015;-75
2024/03/01 07:12:00;;;;;;;57.10;27.35;;;;;;;2.71;100.00;97492.88;15301777;19;20025;-75
2024/03/01 07:17:24;;;;;;;48.85;26.27;;;;;;;2.78;100.00;97478.91;15300453;19;20014;-75
2024/03/01 07:22:52;;;;;;;43.65;24.88;;;;;;;2.87;100.00;97487.91;15290481;19;20006;-76
2024/03/01 07:28:17;;;;;;;39.90;23.80;;;;;;;2.99;100.00;97483.34;15293022;19;20019;-76
2024/03/01 07:33:42;;;;;;;37.30;20.98;;;;;;;3.08;100.00;97490.50;15291499;19;20078;-79
2024/03/01 07:39:11;;;;;;;33.72;20.17;;;;;;;3.18;100.00;97492.31;15295779;19;20631;-76
2024/03/01 07:44:36;;;;;;;31.05;19.35;;;;;;;3.27;100.00;97507.47;15285544;19;20484;-77
2024/03/01 07:50:00;;;;;;;30.25;19.48;;;;;;;3.36;100.00;97509.28;15291584;19;20506;-77
2024/03/01 07:55:28;;;;;;;30.52;18.77;;;;;;;3.48;100.00;97510.03;15292509;19;20038;-78
2024/03/01 08:01:02;;;;;;;30.20;19.55;;;;;;;3.69;100.00;97504.56;15293947;19;20022;-78
2024/03/01 08:06:27;;;;;;;30.27;19.10;;;;;;;3.92;100.00;97485.63;15294950;19;20540;-79
2024/03/01 08:11:56;;;;;;;30.98;18.08;;;;;;;4.13;100.00;97489.94;15300365;19;20098;-79
2024/03/01 08:17:21;;;;;;;25.98;17.35;;;;;;;4.26;100.00;97487.78;15294510;19;20017;-80
2024/03/01 08:22:46;;;;;;;20.92;16.17;;;;;;;4.36;100.00;97494.91;15292369;19;20029;-80
2024/03/01 08:28:13;;;;;;;23.85;15.85;;;;;;;4.44;100.00;97503.03;15298356;19;20322;-79
2024/03/01 08:33:39;;;;;;;22.80;15.88;;;;;;;4.52;100.00;97495.16;15339617;19;20011;-79
2024/03/01 08:39:22;;;;;;;24.75;16.95;;;;;;;4.70;100.00;97507.72;15303432;19;20014;-79
2024/03/01 08:45:03;;;;;;;27.17;16.42;;;;;;;4.90;100.00;97490.63;15288496;19;20085;-79
2024/03/01 08:50:40;;;;;;;23.10;15.60;;;;;;;5.11;100.00;97489.53;15261610;19;20021;-79
2024/03/01 08:56:04;;;;;;;21.17;14.95;;;;;;;5.28;100.00;97479.03;15283214;19;20692;-78
2024/03/01 09:01:54;;;;;;;21.02;15.15;;;;;;;5.39;100.00;97485.00;15291136;19;20033;-79
2024/03/01 09:07:24;;;;;;;20.50;14.13;;;;;;;5.47;100.00;97473.53;15284883;19;20013;-79
2024/03/01 09:12:49;;;;;;;21.40;14.07;;;;;;;5.60;100.00;97477.66;15025768;19;5001851;-79
2024/03/01 09:18:42;;;;;;;20.63;14.50;;;;;;;5.74;100.00;97471.78;15289018;19;20290;-79
2024/03/01 09:24:08;;;;;;;23.33;14.40;;;;;;;5.96;100.00;97480.28;15284354;19;20039;-78
2024/03/01 09:29:37;;;;;;;20.90;14.27;;;;;;;6.17;100.00;97472.78;15289287;19;20038;-79
2024/03/01 09:35:06;;;;;;;17.52;14.18;;;;;;;6.34;100.00;97474.75;15285335;19;20025;-79
2024/03/01 09:41:08;;;;;;;17.20;13.18;;;;;;;6.52;100.00;97466.66;15266127;19;20011;-79
2024/03/01 09:46:43;;;;;;;17.33;13.10;;;;;;;6.72;100.00;97462.75;15295671;19;20368;-80
2024/03/01 09:52:20;;;;;;;16.85;12.43;;;;;;;6.92;100.00;97462.47;15297684;19;20017;-78
2024/03/01 09:57:53;;;;;;;20.38;13.40;;;;;;;7.00;100.00;97464.34;15292281;19;20026;-81
2024/03/01 10:03:28;;;;;;;17.35;12.90;;;;;;;7.03;100.00;97454.16;15294870;19;20018;-81
2024/03/01 10:09:12;;;;;;;15.75;11.93;;;;;;;7.15;100.00;97456.53;15304146;19;20315;-79
2024/03/01 10:14:46;;;;;;;17.75;12.98;;;;;;;7.23;100.00;97467.28;15299278;19;20026;-78
2024/03/01 10:20:27;;;;;;;17.25;13.15;;;;;;;7.34;100.00;97464.28;15311253;19;20015;-81
2024/03/01 10:26:05;;;;;;;18.67;12.55;;;;;;;7.47;100.00;97465.63;15306349;19;20019;-81
2024/03/01 10:31:50;;;;;;;18.55;12.80;;;;;;;7.69;100.00;97451.59;15305388;19;20015;-80
2024/03/01 10:37:21;;;;;;;16.35;11.60;;;;;;;7.84;100.00;97467.00;15302226;19;20032;-80
2024/03/01 10:42:49;;;;;;;16.58;12.27;;;;;;;7.93;100.00;97455.28;15300372;19;20018;-81
2024/03/01 10:48:14;;;;;;;14.50;11.48;;;;;;;8.03;100.00;97439.00;15309046;19;20028;-81
2024/03/01 10:53:40;;;;;;;14.98;11.85;;;;;;;8.15;100.00;97447.56;15296956;19;20018;-81
2024/03/01 10:59:24;;;;;;;15.20;11.38;;;;;;;8.31;100.00;97441.31;15303337;19;20062;-80
2024/03/01 11:05:01;;;;;;;17.80;11.07;;;;;;;8.42;100.00;97449.00;15309888;19;20086;-80
2024/03/01 11:10:34;;;;;;;13.70;11.40;;;;;;;8.58;100.00;97432.03;15301833;19;20078;-79
2024/03/01 11:16:04;;;;;;;14.77;11.00;;;;;;;8.71;100.00;97423.41;15298423;19;20018;-80
2024/03/01 11:21:33;;;;;;;15.40;11.33;;;;;;;8.87;100.00;97424.38;15304132;19;20020;-79
2024/03/01 11:26:58;;;;;;;13.48;10.43;;;;;;;8.99;100.00;97414.09;15300922;19;20476;-80
2024/03/01 11:32:30;;;;;;;14.02;10.43;;;;;;;9.11;100.00;97410.00;15303241;19;20014;-78
2024/03/01 11:38:04;;;;;;;14.35;10.48;;;;;;;9.25;100.00;97411.91;15302327;19;20078;-79
2024/03/01 11:43:47;;;;;;;12.50;9.65;;;;;;;9.45;100.00;97416.81;15332034;19;20011;-78
2024/03/01 11:49:29;;;;;;;11.15;9.85;;;;;;;9.53;100.00;97423.97;15320520;19;20018;-81
2024/03/01 11:55:11;;;;;;;12.35;10.07;;;;;;;9.65;100.00;97416.34;15291934;19;20437;-78
2024/03/01 12:00:47;;;;;;;15.53;9.70;;;;;;;9.73;100.00;97413.56;15294191;19;20015;-78
2024/03/01 12:06:22;;;;;;;11.57;9.18;;;;;;;9.79;100.00;97402.09;15290229;19;20021;-78
2024/03/01 12:11:56;;;;;;;11.10;9.18;;;;;;;9.99;100.00;97397.03;15294445;19;20826;-77
2024/03/01 12:17:26;;;;;;;11.20;9.25;;;;;;;10.15;100.00;97403.28;15295197;19;20749;-77
2024/03/01 12:23:09;;;;;;;11.38;9.57;;;;;;;10.16;100.00;97386.09;15293764;19;20803;-76
2024/03/01 12:28:49;;;;;;;12.60;9.02;;;;;;;10.23;100.00;97391.59;15304812;19;20086;-77
2024/03/01 12:34:34;;;;;;;11.55;8.85;;;;;;;10.32;100.00;97395.84;15304884;19;20556;-77
2024/03/01 12:40:16;;;;;;;11.02;8.45;;;;;;;10.32;100.00;97399.41;15313997;19;20041;-78
2024/03/01 12:46:01;;;;;;;12.02;8.45;;;;;;;10.41;100.00;97402.84;15300985;19;20021;-78
2024/03/01 12:51:36;;;;;;;10.82;8.50;;;;;;;10.49;100.00;97391.16;15294700;19;20045;-78
2024/03/01 12:57:14;;;;;;;12.80;8.90;;;;;;;10.55;100.00;97392.25;15295790;19;20729;-78
2024/03/01 13:03:17;;;;;;;9.48;8.48;;;;;;;10.63;100.00;97386.81;15287441;19;20074;-78
2024/03/01 13:08:47;;;;;;;;;;;;;;;10.74;100.00;97396.25;15293402;19;20085;-77
2024/03/01 13:14:25;;;;;;;9.98;8.68;;;;;;;10.90;100.00;97397.88;15294796;19;19925;-78
2024/03/01 13:19:57;;;;;;;12.20;8.95;;;;;;;11.02;100.00;97399.06;15291913;19;20035;-77
2024/03/01 13:25:29;;;;;;;9.50;8.25;;;;;;;11.10;100.00;97393.59;15283838;19;20010;-77
2024/03/01 13:31:02;;;;;;;11.68;8.15;;;;;;;11.18;100.00;97389.09;15294254;19;20070;-78
2024/03/01 13:36:30;;;;;;;10.23;8.13;;;;;;;11.27;100.00;97379.03;15297748;19;20086;-80
2024/03/01 13:42:10;;;;;;;9.07;7.65;;;;;;;11.32;100.00;97368.50;15298301;19;20505;-81
2024/03/01 13:47:44;;;;;;;8.68;7.65;;;;;;;11.39;100.00;97366.72;15294563;19;20042;-79
2024/03/01 13:53:14;;;;;;;9.68;7.78;;;;;;;11.45;100.00;97362.41;15288582;19;20336;-77
2024/03/01 13:58:45;;;;;;;8.65;7.60;;;;;;;11.49;100.00;97374.47;15285146;19;20019;-77
2024/03/01 14:04:13;;;;;;;7.35;5.70;;;;;;;11.57;100.00;97387.84;15295579;19;20042;-77
2024/03/01 14:09:37;;;;;;;6.43;5.50;;;;;;;11.60;100.00;97371.25;15291025;19;20006;-81
2024/03/01 14:15:03;;;;;;;6.85;5.35;;;;;;;11.62;100.00;97366.50;15290917;19;20029;-79
2024/03/01 14:20:30;;;;;;;6.65;5.65;;;;;;;11.59;100.00;97358.78;15026909;19;5002126;-77
2024/03/01 14:25:48;;;;;;;5.97;5.38;;;;;;;11.58;100.00;97365.22;15286190;19;20015;-77
2024/03/01 14:31:13;;;;;;;6.03;5.18;;;;;;;11.51;100.00;97361.63;15284881;19;20614;-77
2024/03/01 14:36:51;;;;;;;7.18;5.20;;;;;;;11.48;100.00;97356.59;15284659;19;20050;-77
2024/03/01 14:42:21;;;;;;;6.47;5.38;;;;;;;11.45;100.00;97352.44;15291872;19;20025;-77
2024/03/01 14:47:53;;;;;;;5.90;4.80;;;;;;;11.44;100.00;97348.06;15286702;19;20472;-76
2024/03/01 14:59:04;;;;;;;7.20;5.10;;;;;;;11.39;100.00;97354.06;15355414;19;20065;-52
2024/03/01 15:04:30;;;;;;;5.97;5.32;;;;;;;11.36;100.00;97349.03;15359583;19;20077;-52
2024/03/01 15:09:59;;;;;;;5.88;4.88;;;;;;;11.31;100.00;97356.03;15354265;19;20019;-56
2024/03/01 15:15:28;;;;;;;5.55;4.43;;;;;;;11.24;100.00;97358.66;15358484;19;20014;-54
2024/03/01 15:20:54;;;;;;;6.07;4.78;;;;;;;11.18;100.00;97356.75;15356461;19;20044;-52
2024/03/01 15:26:19;;;;;;;5.30;4.80;;;;;;;11.11;100.00;97351.28;15364568;19;20018;-53
2024/03/01 15:31:54;;;;;;;6.43;5.50;;;;;;;11.01;100.00;97356.97;15364549;19;20030;-53
2024/03/01 15:37:19;;;;;;;7.75;5.68;;;;;;;10.93;100.00;97349.00;15354968;19;20026;-53
2024/03/01 15:53:49;;;;;;;7.28;6.03;;;;;;;10.64;100.00;97356.16;15483533;18;20006;-53
2024/03/01 15:59:14;;;;;;;7.20;6.32;;;;;;;10.56;100.00;97356.22;15358225;19;20010;-50
2024/03/01 16:04:40;;;;;;;6.95;5.93;;;;;;;10.46;100.00;97349.28;15354054;19;20024;-51
2024/03/01 16:10:12;;;;;;;7.65;6.35;;;;;;;10.36;100.00;97348.72;15285884;19;20022;-49
2024/03/01 16:15:37;;;;;;;7.05;5.68;;;;;;;10.30;100.00;97349.44;15292201;19;20018;-50
2024/03/01 16:21:02;;;;;;;7.60;5.93;;;;;;;10.20;100.00;97352.44;15294778;19;20018;-51
2024/03/01 16:26:30;;;;;;;7.57;5.93;;;;;;;10.07;100.00;97357.59;15294188;19;20016;-51
2024/03/01 16:31:55;;;;;;;6.95;5.68;;;;;;;9.93;100.00;97364.66;15297802;19;20011;-51
2024/03/01 16:37:19;;;;;;;8.00;6.25;;;;;;;9.80;100.00;97366.13;15296903;19;20017;-53
2024/03/01 16:42:47;;;;;;;7.45;6.15;;;;;;;9.66;100.00;97370.41;15289125;19;20006;-52
2024/03/01 16:48:18;;;;;;;8.00;6.50;;;;;;;9.56;100.00;97362.63;15299345;19;20101;-53
2024/03/01 16:53:43;;;;;;;8.65;7.07;;;;;;;9.46;100.00;97372.78;15286356;19;20025;-52
2024/03/01 16:59:11;;;;;;;7.50;6.70;;;;;;;9.34;100.00;97368.84;15290784;19;20078;-52
2024/03/01 17:04:37;;;;;;;11.90;7.35;;;;;;;9.18;100.00;97365.25;15297696;19;20032;-54
2024/03/01 17:10:02;;;;;;;8.85;7.80;;;;;;;9.03;100.00;97362.50;15294603;19;20082;-52
2024/03/01 17:15:30;;;;;;;11.02;8.00;;;;;;;8.92;100.00;97369.13;15297108;19;20024;-52
2024/03/01 17:20:57;;;;;;;10.38;8.50;;;;;;;8.86;100.00;97371.66;15293411;19;20078;-53
2024/03/01 17:26:21;;;;;;;11.57;8.85;;;;;;;8.76;100.00;97366.53;15291253;19;20057;-51
2024/03/01 17:31:49;;;;;;;10.20;8.75;;;;;;;8.72;100.00;97382.13;15293589;19;20488;-51
2024/03/01 17:37:14;;;;;;;11.32;9.18;;;;;;;8.63;100.00;97386.72;15293029;19;20024;-51
2024/03/01 17:42:38;;;;;;;12.40;10.02;;;;;;;8.58;100.00;97383.72;15282513;19;20030;-53
2024/03/01 17:48:06;;;;;;;12.13;10.10;;;;;;;8.52;100.00;97384.44;15289527;19;20022;-52
2024/03/01 17:53:38;;;;;;;11.48;9.85;;;;;;;8.48;100.00;97385.78;15292927;19;20018;-53
2024/03/01 17:59:03;;;;;;;14.37;10.33;;;;;;;8.46;100.00;97379.72;15285499;19;20021;-51
2024/03/01 18:04:30;;;;;;;11.55;9.48;;;;;;;8.46;100.00;97379.72;15293151;19;20024;-51
2024/03/01 18:09:56;;;;;;;12.95;10.15;;;;;;;8.45;100.00;97372.66;15290240;19;20018;-54
2024/03/01 18:15:20;;;;;;;12.90;10.27;;;;;;;8.46;100.00;97379.72;15287906;19;20017;-52
2024/03/01 18:20:47;;;;;;;12.63;10.27;;;;;;;8.41;100.00;97387.47;15291045;19;20025;-53
2024/03/01 18:26:12;;;;;;;15.13;10.27;;;;;;;8.37;100.00;97386.94;15282565;19;20035;-51
2024/03/01 18:31:37;;;;;;;12.85;10.27;;;;;;;8.32;100.00;97395.50;15286178;19;20642;-50
2024/03/01 18:37:04;;;;;;;10.13;8.85;;;;;;;8.30;100.00;97388.66;15286645;19;20039;-52
2024/03/01 18:42:29;;;;;;;10.38;8.77;;;;;;;8.29;100.00;97393.16;15288032;19;20370;-56
2024/03/01 18:47:53;;;;;;;11.82;8.73;;;;;;;8.26;100.00;97382.81;15287008;19;21077;-52
2024/03/01 18:53:27;;;;;;;9.88;8.57;;;;;;;8.17;100.00;97383.84;15279494;19;20027;-55
2024/03/01 18:58:52;;;;;;;9.57;8.32;;;;;;;8.13;100.00;97379.81;15286912;19;20033;-56
2024/03/01 19:04:16;;;;;;;11.35;8.40;;;;;;;8.08;100.00;97383.00;15290587;19;20413;-50
2024/03/01 19:09:44;;;;;;;11.07;8.73;;;;;;;8.02;100.00;97392.59;15286265;19;20019;-50
2024/03/01 19:15:09;;;;;;;10.95;9.15;;;;;;;7.98;100.00;97399.28;15263842;19;20019;-50
2024/03/01 19:20:35;;;;;;;10.63;8.30;;;;;;;7.92;100.00;97399.97;15281286;19;20090;-53
2024/03/01 19:26:03;;;;;;;10.27;8.40;;;;;;;7.87;100.00;97399.63;15291292;19;20078;-51
2024/03/01 19:31:30;;;;;;;10.35;8.77;;;;;;;7.82;100.00;97402.81;15291003;19;20015;-54
2024/03/01 19:36:56;;;;;;;10.45;8.70;;;;;;;7.75;100.00;97406.34;15286163;19;20015;-54
2024/03/01 19:42:25;;;;;;;9.23;7.80;;;;;;;7.59;100.00;97391.94;15297172;19;20007;-51
2024/03/01 19:47:49;;;;;;;10.98;8.20;;;;;;;7.51;100.00;97397.31;15305214;19;20023;-51
2024/03/01 19:53:14;;;;;;;9.63;7.32;;;;;;;7.50;100.00;97390.25;15294419;19;20029;-52
2024/03/01 19:58:41;;;;;;;10.02;7.25;;;;;;;7.52;100.00;97388.25;15297790;19;20025;-54
2024/03/01 20:04:06;;;;;;;9.13;7.78;;;;;;;7.54;100.00;97383.56;15303698;19;20106;-51
2024/03/01 20:09:30;;;;;;;9.55;7.78;;;;;;;7.58;100.00;97382.25;15293123;19;20015;-51
2024/03/01 20:14:58;;;;;;;10.10;8.00;;;;;;;7.56;100.00;97381.56;15278372;19;126138;-50
2024/03/01 20:20:24;;;;;;;8.32;6.80;;;;;;;7.56;100.00;97374.34;15284044;19;20018;-55
2024/03/01 20:25:49;;;;;;;7.90;6.78;;;;;;;7.50;100.00;97371.50;15289511;19;20008;-54
2024/03/01 20:31:17;;;;;;;9.70;7.30;;;;;;;7.46;100.00;97368.31;15295696;19;20019;-50
2024/03/01 20:36:42;;;;;;;9.15;7.75;;;;;;;7.47;100.00;97364.66;15290509;19;20033;-53
2024/03/01 20:42:06;;;;;;;9.15;7.30;;;;;;;7.48;100.00;97366.31;15290342;19;20014;-54
2024/03/01 20:47:33;;;;;;;8.23;6.50;;;;;;;7.44;100.00;97359.63;15299990;19;20118;-55
2024/03/01 20:52:59;;;;;;;7.72;6.68;;;;;;;7.40;100.00;97359.13;15292971;19;20018;-51
2024/03/01 20:58:24;;;;;;;7.90;7.03;;;;;;;7.35;100.00;97350.72;15287715;19;20074;-50
2024/03/01 21:03:51;;;;;;;8.45;7.05;;;;;;;7.29;100.00;97351.41;15288444;19;20022;-51
2024/03/01 21:09:19;;;;;;;8.18;6.50;;;;;;;7.25;100.00;97347.38;15292523;19;20646;-51
2024/03/01 21:14:45;;;;;;;8.40;6.43;;;;;;;7.22;100.00;97345.06;15290575;19;20073;-50
2024/03/01 21:20:13;;;;;;;6.90;6.03;;;;;;;7.22;100.00;97337.03;15285817;19;20014;-50
2024/03/01 21:25:38;;;;;;;11.15;8.45;;;;;;;7.24;100.00;97337.66;15289801;19;20025;-53
2024/03/01 21:31:03;;;;;;;12.23;9.38;;;;;;;7.22;100.00;97350.41;15291017;19;20019;-51
2024/03/01 21:36:30;;;;;;;9.07;7.03;;;;;;;7.19;100.00;97345.38;15296803;19;20030;-53
2024/03/01 21:41:55;;;;;;;8.35;6.70;;;;;;;7.12;100.00;97339.84;15293967;19;20042;-51
2024/03/01 21:47:21;;;;;;;8.07;6.70;;;;;;;7.05;100.00;97346.88;15297927;19;20089;-50
2024/03/01 21:52:49;;;;;;;7.82;6.07;;;;;;;6.99;100.00;97340.34;15284905;19;20022;-52
2024/03/01 21:58:14;;;;;;;8.10;6.40;;;;;;;6.94;100.00;97342.66;15286327;19;20039;-51
2024/03/01 22:03:39;;;;;;;8.75;6.57;;;;;;;6.90;100.00;97334.13;15283352;19;20074;-50
2024/03/01 22:09:06;;;;;;;8.57;6.60;;;;;;;6.88;100.00;97332.63;15287668;19;20047;-54
2024/03/01 22:14:32;;;;;;;8.60;7.05;;;;;;;6.86;100.00;97334.63;15292327;19;20364;-51
2024/03/01 22:19:56;;;;;;;9.68;6.75;;;;;;;6.84;100.00;97333.97;15286560;19;20094;-50
2024/03/01 22:25:24;;;;;;;8.95;6.20;;;;;;;6.82;100.00;97328.75;15285751;19;20014;-50
2024/03/01 22:30:48;;;;;;;8.82;6.80;;;;;;;6.81;100.00;97336.94;15290003;19;20423;-53
2024/03/01 22:36:14;;;;;;;9.10;6.57;;;;;;;6.77;100.00;97323.88;15287860;19;20022;-51
2024/03/01 22:41:42;;;;;;;7.68;6.15;;;;;;;6.78;100.00;97322.06;15289594;19;20017;-53
2024/03/01 22:47:08;;;;;;;6.85;5.80;;;;;;;6.76;100.00;97310.69;15282296;19;20570;-52
2024/03/01 22:52:38;;;;;;;7.85;5.88;;;;;;;6.75;100.00;97312.53;15286748;19;20020;-54
2024/03/01 22:58:06;;;;;;;7.97;6.20;;;;;;;6.74;100.00;97312.69;15283470;19;20098;-53
2024/03/01 23:03:43;;;;;;;7.53;5.90;;;;;;;6.72;100.00;97302.16;15285086;19;20371;-51
2024/03/01 23:09:19;;;;;;;8.02;5.50;;;;;;;6.70;100.00;97303.31;15282943;19;20014;-52
2024/03/01 23:14:53;;;;;;;7.72;5.90;;;;;;;6.69;100.00;97305.16;15288449;19;20022;-53
2024/03/01 23:20:18;;;;;;;7.40;6.03;;;;;;;6.68;100.00;97300.78;15296765;19;20109;-55
2024/03/01 23:25:42;;;;;;;7.35;5.88;;;;;;;6.66;100.00;97307.31;15298132;19;20077;-53
2024/03/01 23:31:10;;;;;;;7.72;6.10;;;;;;;6.60;100.00;97304.28;15303555;19;20074;-55
2024/03/01 23:36:34;;;;;;;7.43;6.25;;;;;;;6.56;100.00;97296.75;15299197;19;20011;-51
2024/03/01 23:41:59;;;;;;;8.35;6.60;;;;;;;6.50;100.00;97297.41;15302133;19;20018;-53
2024/03/01 23:47:26;;;;;;;8.32;6.20;;;;;;;6.44;100.00;97294.38;15295317;19;20385;-53
2024/03/01 23:52:57;;;;;;;8.15;6.07;;;;;;;6.43;100.00;97289.22;15292090;19;20025;-52
2024/03/01 23:58:22;;;;;;;11.20;6.10;;;;;;;6.38;100.00;97289.69;15295933;19;20030;-50
